Time;durP1;ratioP1;P1;durP2;ratioP2;P2;SDS_P1;SDS_P2;PMS_P1;PMS_P2;Temp;Humidity;BMP_temperature;BMP_pressure;BME280_temperature;BME280_humidity;BME280_pressure;Samples;Min_cycle;Max_cycle;Signal;HPM_P1;HPM_P2
2022/07/19 00:02:09;;;;;;;;;8.00;8.00;;;;;24.77;48.19;101845.91;5051942;28;8820;-67
2022/07/19 00:04:35;;;;;;;;;11.00;9.75;;;;;24.72;48.28;101838.44;5052132;28;8836;-67
2022/07/19 00:07:03;;;;;;;;;7.00;7.00;;;;;24.66;48.18;101837.56;5051827;28;8824;-67
2022/07/19 00:09:30;;;;;;;;;6.75;6.75;;;;;24.65;48.62;101833.16;5052050;28;8819;-67
2022/07/19 00:11:57;;;;;;;;;6.50;6.50;;;;;24.63;48.48;101838.13;5048243;28;8871;-67
2022/07/19 00:14:23;;;;;;;;;7.75;7.75;;;;;24.59;48.40;101828.72;5047641;28;8881;-67
2022/07/19 00:16:50;;;;;;;;;9.25;9.25;;;;;24.57;48.43;101836.41;5030616;28;8832;-70
2022/07/19 00:19:17;;;;;;;;;8.50;8.50;;;;;24.56;48.65;101831.19;5016823;28;8973;-67
2022/07/19 00:21:43;;;;;;;;;10.25;9.75;;;;;24.51;48.70;101831.13;5051930;28;8820;-68
2022/07/19 00:24:10;;;;;;;;;6.50;6.50;;;;;24.48;48.72;101829.72;5051741;28;8817;-68
2022/07/19 00:26:36;;;;;;;;;11.25;10.50;;;;;24.44;48.93;101825.84;5045444;28;8835;-67
2022/07/19 00:29:03;;;;;;;;;9.50;8.25;;;;;24.42;49.01;101822.53;5044497;28;8813;-67
2022/07/19 00:31:30;;;;;;;;;9.25;9.25;;;;;24.39;48.91;101829.41;5051627;28;8823;-68
2022/07/19 00:33:57;;;;;;;;;9.50;9.00;;;;;24.35;49.28;101821.91;5051727;28;8851;-68
2022/07/19 00:36:24;;;;;;;;;8.25;8.25;;;;;24.33;49.40;101816.63;5050913;28;8821;-67
2022/07/19 00:38:50;;;;;;;;;11.00;7.75;;;;;24.30;49.55;101819.09;5049646;28;8976;-68
2022/07/19 00:41:17;;;;;;;;;9.00;8.75;;;;;24.27;49.27;101812.19;5044604;28;8839;-68
2022/07/19 00:43:43;;;;;;;;;6.75;6.75;;;;;24.25;49.38;101819.88;5049734;28;8820;-67
2022/07/19 00:46:14;;;;;;;;;7.75;7.75;;;;;24.23;49.32;101832.25;5051653;28;8955;-67
2022/07/19 00:48:42;;;;;;;;;11.50;9.00;;;;;24.18;49.12;101817.38;5050081;28;8889;-67
2022/07/19 00:51:10;;;;;;;;;8.00;7.50;;;;;24.18;48.86;101824.75;5049738;28;8812;-67
2022/07/19 00:53:38;;;;;;;;;9.00;9.00;;;;;24.14;48.88;101813.44;5049044;28;8855;-68
2022/07/19 00:56:07;;;;;;;;;8.25;8.00;;;;;24.13;48.97;101814.53;5031293;28;8810;-68
2022/07/19 00:58:35;;;;;;;;;7.00;7.00;;;;;24.11;49.07;101816.75;5033444;28;8965;-67
2022/07/19 01:01:04;;;;;;;;;9.00;7.75;;;;;24.11;49.09;101824.16;5051227;28;8889;-68
2022/07/19 01:03:34;;;;;;;;;9.25;8.00;;;;;24.10;48.77;101817.81;5049834;28;8947;-67
2022/07/19 01:06:00;;;;;;;;;7.00;7.00;;;;;24.08;48.42;101817.25;5041194;28;9607;-68
2022/07/19 01:08:27;;;;;;;;;7.25;6.75;;;;;24.05;48.56;101808.69;5051254;28;10067;-67
2022/07/19 01:10:54;;;;;;;;;6.00;6.00;;;;;24.03;48.69;101806.22;5051984;28;8894;-67
2022/07/19 01:13:20;;;;;;;;;9.00;9.00;;;;;24.03;48.85;101802.63;5043069;28;8828;-67
2022/07/19 01:15:47;;;;;;;;;6.00;6.00;;;;;24.03;48.56;101797.13;5034589;28;8813;-67
2022/07/19 01:18:13;;;;;;;;;8.25;8.25;;;;;24.04;48.54;101802.38;5050723;28;8813;-66
2022/07/19 01:20:41;;;;;;;;;6.25;6.25;;;;;24.04;48.28;101807.88;5027080;28;8807;-67
2022/07/19 01:23:07;;;;;;;;;8.25;8.25;;;;;24.07;47.83;101803.78;5034624;28;8825;-67
2022/07/19 01:25:36;;;;;;;;;6.00;6.00;;;;;24.13;47.35;101802.72;5052417;28;8890;-67
2022/07/19 01:28:05;;;;;;;;;6.50;6.50;;;;;24.15;47.47;101800.53;5048133;28;8876;-67
2022/07/19 01:30:33;;;;;;;;;8.50;7.75;;;;;24.14;47.15;101807.13;5044663;28;8853;-67
2022/07/19 01:33:00;;;;;;;;;7.25;7.25;;;;;24.10;47.17;101800.47;5034159;28;8818;-68
2022/07/19 01:35:27;;;;;;;;;6.00;6.00;;;;;24.08;47.50;101798.00;5045517;28;8870;-67
2022/07/19 01:37:53;;;;;;;;;6.25;6.25;;;;;24.06;47.36;101802.91;5019626;28;8813;-67
2022/07/19 01:40:20;;;;;;;;;7.50;7.50;;;;;24.04;47.14;101796.03;5053433;28;8840;-67
2022/07/19 01:42:48;;;;;;;;;10.25;10.25;;;;;24.04;47.17;101796.88;5051077;28;8844;-67
2022/07/19 01:45:16;;;;;;;;;7.75;6.50;;;;;24.06;47.31;101800.16;5032870;28;8851;-66
2022/07/19 01:47:43;;;;;;;;;8.75;8.25;;;;;24.05;47.47;101794.94;5014842;28;8858;-67
2022/07/19 01:50:11;;;;;;;;;7.50;7.50;;;;;24.04;47.32;101796.03;5042755;28;8867;-67
2022/07/19 01:52:38;;;;;;;;;8.50;8.00;;;;;23.97;47.44;101793.50;5048851;28;8843;-66
2022/07/19 01:55:10;;;;;;;;;11.75;8.50;;;;;23.94;47.45;101794.00;5052861;28;8923;-66
2022/07/19 01:57:36;;;;;;;;;9.00;9.00;;;;;23.87;47.48;101796.16;5051200;28;8836;-67
2022/07/19 02:00:04;;;;;;;;;12.75;9.75;;;;;23.85;47.75;101801.91;5052381;28;8878;-67
2022/07/19 02:02:37;;;;;;;;;6.50;6.50;;;;;23.82;47.83;101793.34;5049955;28;9594;-67
2022/07/19 02:05:05;;;;;;;;;5.00;5.00;;;;;23.81;47.86;101792.50;5043722;28;8909;-66
2022/07/19 02:07:33;;;;;;;;;6.75;6.50;;;;;23.79;47.74;101788.38;5051550;28;8808;-65
2022/07/19 02:10:00;;;;;;;;;9.25;8.00;;;;;23.74;47.95;101791.91;5027766;28;8853;-67
2022/07/19 02:12:26;;;;;;;;;7.00;7.00;;;;;23.70;48.04;101788.03;5044921;28;8909;-68
2022/07/19 02:14:53;;;;;;;;;8.75;8.25;;;;;23.65;48.18;101785.16;5033987;28;8824;-65
2022/07/19 02:17:19;;;;;;;;;9.50;9.25;;;;;23.63;48.20;101788.19;5051220;28;8813;-65
2022/07/19 02:19:46;;;;;;;;;8.75;8.75;;;;;23.61;48.26;101786.78;5026445;28;8871;-68
2022/07/19 02:22:12;;;;;;;;;7.25;7.25;;;;;23.58;48.25;101785.38;5035136;28;8828;-68
2022/07/19 02:24:42;;;;;;;;;9.00;9.00;;;;;23.56;47.98;101783.97;5050578;28;8847;-65
2022/07/19 02:27:10;;;;;;;;;11.75;10.75;;;;;23.53;48.12;101788.06;5023139;28;8791;-65
2022/07/19 02:29:37;;;;;;;;;7.50;7.50;;;;;23.49;48.23;101788.84;5037369;28;8860;-65
2022/07/19 02:32:04;;;;;;;;;7.75;7.25;;;;;23.42;48.35;101789.88;5034961;28;8833;-65
2022/07/19 02:34:30;;;;;;;;;8.75;8.75;;;;;23.37;48.39;101788.97;5053094;28;8828;-65
2022/07/19 02:36:57;;;;;;;;;8.25;8.25;;;;;23.35;48.67;101785.66;5035100;28;9578;-66
2022/07/19 02:39:23;;;;;;;;;10.00;10.00;;;;;23.32;49.03;101788.91;5055932;28;8817;-66
2022/07/19 02:41:51;;;;;;;;;9.00;9.00;;;;;23.29;48.94;101781.19;5045397;28;8947;-66
2022/07/19 02:44:17;;;;;;;;;9.00;9.00;;;;;23.26;48.85;101782.53;5041274;28;8820;-65
2022/07/19 02:46:44;;;;;;;;;7.00;7.00;;;;;23.20;48.96;101781.63;5028849;28;8971;-65
2022/07/19 02:49:10;;;;;;;;;7.00;6.00;;;;;23.18;48.98;101783.81;5037085;28;8841;-66
2022/07/19 02:51:36;;;;;;;;;9.50;9.50;;;;;23.16;49.25;101777.75;5037653;28;8869;-66
2022/07/19 02:54:03;;;;;;;;;8.75;8.75;;;;;23.15;49.04;101776.09;5045815;28;8830;-66
2022/07/19 02:56:29;;;;;;;;;8.00;8.00;;;;;23.15;49.03;101773.34;5038318;28;8801;-66
2022/07/19 02:58:56;;;;;;;;;10.00;8.25;;;;;23.14;48.84;101766.19;5051711;28;8869;-65
2022/07/19 03:01:22;;;;;;;;;9.50;8.00;;;;;23.10;48.94;101773.28;5051805;28;8813;-65
2022/07/19 03:03:50;;;;;;;;;9.25;9.25;;;;;23.11;48.79;101776.84;5056151;28;8840;-66
2022/07/19 03:06:18;;;;;;;;;8.75;8.50;;;;;23.12;48.85;101775.75;5056047;28;8829;-65
2022/07/19 03:08:46;;;;;;;;;9.75;9.00;;;;;23.08;48.69;101778.19;5041018;28;8872;-66
2022/07/19 03:11:13;;;;;;;;;8.00;8.00;;;;;23.05;48.96;101777.88;5045824;28;8910;-66
2022/07/19 03:13:39;;;;;;;;;8.50;8.00;;;;;23.01;49.16;101780.31;5038676;28;8826;-66
2022/07/19 03:16:06;;;;;;;;;10.50;10.50;;;;;22.96;49.20;101777.47;5035951;28;8840;-65
2022/07/19 03:18:34;;;;;;;;;9.50;9.50;;;;;22.92;49.27;101768.09;5018501;28;8814;-68
2022/07/19 03:21:01;;;;;;;;;9.00;8.50;;;;;22.89;49.21;101772.16;5045367;28;8859;-66
2022/07/19 03:23:31;;;;;;;;;7.50;7.50;;;;;22.88;49.38;101772.41;5028367;28;8905;-65
2022/07/19 03:25:58;;;;;;;;;7.00;7.00;;;;;22.87;49.21;101765.25;5027717;28;8815;-65
2022/07/19 03:28:25;;;;;;;;;9.00;8.25;;;;;22.86;49.08;101760.84;5054946;28;8955;-67
2022/07/19 03:30:51;;;;;;;;;9.00;8.50;;;;;22.85;49.45;101764.66;5055256;28;8844;-67
2022/07/19 03:33:18;;;;;;;;;9.50;8.75;;;;;22.84;49.32;101765.75;5055297;28;8896;-67
2022/07/19 03:35:46;;;;;;;;;9.50;9.50;;;;;22.80;49.30;101770.91;5055311;28;10464;-66
2022/07/19 03:38:15;;;;;;;;;9.00;9.00;;;;;22.76;49.39;101766.19;5037155;28;8808;-66
2022/07/19 03:40:42;;;;;;;;;9.25;9.00;;;;;22.72;49.44;101771.34;5024337;28;8828;-66
2022/07/19 03:43:08;;;;;;;;;10.50;8.00;;;;;22.66;49.23;101769.63;5035393;28;8834;-66
2022/07/19 03:45:35;;;;;;;;;8.00;7.75;;;;;22.64;49.54;101763.53;5035270;28;8838;-66
2022/07/19 03:48:01;;;;;;;;;9.50;9.50;;;;;22.61;49.50;101751.19;5050357;28;8889;-65
2022/07/19 03:50:28;;;;;;;;;9.00;9.00;;;;;22.60;49.75;101754.97;5053193;28;8808;-66
2022/07/19 03:52:54;;;;;;;;;9.25;9.25;;;;;22.60;49.52;101759.66;5037672;28;8896;-66
2022/07/19 03:55:21;;;;;;;;;8.75;8.75;;;;;22.59;49.67;101761.56;5048374;28;8822;-65
2022/07/19 03:57:47;;;;;;;;;9.75;9.75;;;;;22.58;49.67;101757.16;5048232;28;8870;-66
2022/07/19 04:00:14;;;;;;;;;11.75;11.50;;;;;22.56;49.70;101762.06;5055052;28;8840;-65
2022/07/19 04:02:40;;;;;;;;;9.00;9.00;;;;;22.53;49.70;101762.59;5053452;28;8828;-65
2022/07/19 04:05:07;;;;;;;;;9.75;9.75;;;;;22.50;50.06;101759.50;5034562;28;8835;-66
2022/07/19 04:07:34;;;;;;;;;9.75;9.75;;;;;22.46;50.26;101768.25;5040691;28;8828;-66
2022/07/19 04:10:00;;;;;;;;;9.75;8.75;;;;;22.45;50.43;101763.00;5046579;28;8816;-66
2022/07/19 04:12:27;;;;;;;;;14.75;12.50;;;;;22.44;50.25;101761.31;5045032;28;8811;-66
2022/07/19 04:14:53;;;;;;;;;9.50;8.00;;;;;22.41;50.40;101759.94;5041571;28;9673;-66
2022/07/19 04:17:21;;;;;;;;;9.00;9.00;;;;;22.42;50.43;101763.50;5034103;28;8823;-66
2022/07/19 04:19:47;;;;;;;;;7.75;7.75;;;;;22.40;50.23;101761.03;5036262;28;8838;-66
2022/07/19 04:22:13;;;;;;;;;11.75;11.00;;;;;22.38;50.30;101760.44;5044154;28;8843;-65
2022/07/19 04:24:40;;;;;;;;;10.50;10.50;;;;;22.37;50.29;101760.69;5036403;28;8828;-65
2022/07/19 04:27:06;;;;;;;;;9.50;8.50;;;;;22.38;50.29;101763.19;5036076;28;8871;-65
2022/07/19 04:29:33;;;;;;;;;8.75;8.75;;;;;22.37;50.51;101760.69;5036577;28;8833;-65
2022/07/19 04:31:59;;;;;;;;;8.00;8.00;;;;;22.38;50.62;101756.88;5028033;28;8847;-66
2022/07/19 04:34:26;;;;;;;;;10.50;9.50;;;;;22.36;50.63;101765.34;5034094;28;8839;-66
2022/07/19 04:36:52;;;;;;;;;8.50;8.50;;;;;22.36;50.72;101753.53;5035036;28;8912;-66
2022/07/19 04:39:19;;;;;;;;;9.75;8.75;;;;;22.36;50.82;101765.34;5047478;28;9563;-66
2022/07/19 04:41:45;;;;;;;;;9.50;9.25;;;;;22.38;50.80;101763.19;5032565;28;8828;-65
2022/07/19 04:44:12;;;;;;;;;7.75;7.25;;;;;22.42;51.02;101766.25;5053611;28;8909;-68
2022/07/19 04:46:38;;;;;;;;;10.75;8.50;;;;;22.44;50.75;101764.06;5049257;28;8950;-65
2022/07/19 04:49:12;;;;;;;;;8.25;8.25;;;;;22.46;50.87;101764.66;5009914;28;8859;-66
2022/07/19 04:51:38;;;;;;;;;7.75;7.75;;;;;22.47;50.76;101760.84;5051676;28;8944;-65
2022/07/19 04:54:05;;;;;;;;;7.75;7.75;;;;;22.48;50.94;101757.00;5042008;28;8827;-66
2022/07/19 04:56:31;;;;;;;;;8.75;7.75;;;;;22.51;50.96;101759.25;5016109;28;8933;-66
2022/07/19 04:58:58;;;;;;;;;7.75;7.75;;;;;22.53;50.87;101756.28;5036663;28;8848;-66
2022/07/19 05:01:24;;;;;;;;;8.00;5.50;;;;;22.56;50.88;101764.81;5053785;28;8890;-66
2022/07/19 05:03:51;;;;;;;;;8.00;8.00;;;;;22.60;50.89;101763.22;5053828;28;8812;-65
2022/07/19 05:06:17;;;;;;;;;6.25;6.25;;;;;22.62;50.98;101766.56;5047579;28;8872;-68
2022/07/19 05:08:44;;;;;;;;;8.00;6.75;;;;;22.66;51.07;101766.88;5036060;28;8878;-66
2022/07/19 05:11:10;;;;;;;;;9.50;7.50;;;;;22.68;51.04;101767.44;5052950;28;8817;-66
2022/07/19 05:13:37;;;;;;;;;5.50;5.50;;;;;22.73;50.98;101761.19;5044211;28;8864;-68
2022/07/19 05:16:03;;;;;;;;;5.75;5.25;;;;;22.78;50.94;101758.53;5033351;28;8894;-67
2022/07/19 05:18:30;;;;;;;;;6.50;6.50;;;;;22.80;50.93;101757.19;5033033;28;8827;-67
2022/07/19 05:20:56;;;;;;;;;5.00;5.00;;;;;22.86;50.88;101763.59;5036979;28;8882;-67
2022/07/19 05:23:23;;;;;;;;;7.50;7.50;;;;;22.90;50.48;101759.25;5051319;28;8875;-66
2022/07/19 05:25:49;;;;;;;;;3.25;3.00;;;;;22.94;50.26;101765.94;5052715;28;8994;-66
2022/07/19 05:28:16;;;;;;;;;3.50;3.50;;;;;22.98;50.03;101760.75;5050467;28;8832;-67
2022/07/19 05:30:43;;;;;;;;;4.50;4.50;;;;;23.02;49.60;101761.91;5043797;28;8811;-66
2022/07/19 05:33:09;;;;;;;;;3.75;3.75;;;;;23.06;49.69;101761.16;5033617;28;8810;-67
2022/07/19 05:35:38;;;;;;;;;5.00;5.00;;;;;23.12;49.68;101767.53;5037259;28;8883;-66
2022/07/19 05:38:04;;;;;;;;;6.00;6.00;;;;;23.16;49.85;101761.25;5020362;28;8851;-67
2022/07/19 05:40:35;;;;;;;;;9.00;7.50;;;;;23.22;49.47;101764.09;5031626;28;8896;-67
2022/07/19 05:43:01;;;;;;;;;5.00;5.00;;;;;23.35;49.23;101761.75;5043523;28;8796;-66
2022/07/19 05:45:28;;;;;;;;;4.25;4.25;;;;;23.54;49.01;101769.69;5052061;28;8909;-66
2022/07/19 05:47:54;;;;;;;;;4.75;4.25;;;;;23.72;49.33;101763.84;5029577;28;8828;-66
2022/07/19 05:50:20;;;;;;;;;4.25;4.25;;;;;23.89;48.78;101767.28;5051950;28;8903;-66
2022/07/19 05:52:47;;;;;;;;;7.25;7.25;;;;;24.03;47.96;101767.72;5045819;28;8832;-66
2022/07/19 05:55:13;;;;;;;;;6.75;6.50;;;;;24.17;47.60;101765.34;5047170;28;8816;-66
2022/07/19 05:57:40;;;;;;;;;6.00;6.00;;;;;24.31;47.13;101769.31;5047256;28;8910;-67
2022/07/19 06:00:07;;;;;;;;;5.00;5.00;;;;;24.47;46.90;101764.78;5044076;28;8835;-66
2022/07/19 06:02:40;;;;;;;;;5.50;5.25;;;;;24.58;46.49;101760.16;5045601;28;8827;-68
2022/07/19 06:05:08;;;;;;;;;7.75;7.00;;;;;24.70;46.28;101760.78;5049998;28;8852;-68
2022/07/19 06:07:35;;;;;;;;;5.75;5.75;;;;;24.82;46.47;101766.06;5040375;28;8882;-67
2022/07/19 06:10:02;;;;;;;;;6.00;6.00;;;;;24.90;46.39;101755.38;5030181;28;8831;-68
2022/07/19 06:12:29;;;;;;;;;4.00;4.00;;;;;24.98;46.29;101751.28;5042246;28;8805;-66
2022/07/19 06:14:55;;;;;;;;;6.00;6.00;;;;;25.01;45.46;101758.19;5054089;28;8831;-69
2022/07/19 06:17:21;;;;;;;;;6.75;6.00;;;;;25.07;45.42;101757.91;5051512;28;8805;-67
2022/07/19 06:19:50;;;;;;;;;5.75;5.75;;;;;25.10;45.12;101749.16;5048426;28;8879;-67
2022/07/19 06:22:16;;;;;;;;;5.50;5.50;;;;;25.12;44.82;101748.91;5053432;28;9535;-68
2022/07/19 06:24:42;;;;;;;;;7.75;7.00;;;;;25.10;44.43;101753.84;5053936;28;8878;-67
2022/07/19 06:27:09;;;;;;;;;5.50;5.50;;;;;25.11;44.79;101759.06;5045137;28;8954;-67
2022/07/19 06:29:35;;;;;;;;;2.00;2.00;;;;;25.13;44.72;101753.31;5035843;28;8865;-68
2022/07/19 06:32:02;;;;;;;;;5.50;5.00;;;;;25.17;44.65;101753.59;5034026;28;8821;-68
2022/07/19 06:34:29;;;;;;;;;5.50;5.50;;;;;25.18;44.69;101758.81;5047274;28;8878;-68
2022/07/19 06:36:55;;;;;;;;;6.00;5.25;;;;;25.19;44.41;101754.13;5044934;28;8851;-68
2022/07/19 06:39:22;;;;;;;;;10.00;5.00;;;;;25.21;43.96;101762.97;5053688;28;8948;-67
2022/07/19 06:41:48;;;;;;;;;8.75;8.25;;;;;25.21;43.18;101758.28;5044593;28;8823;-67
2022/07/19 06:44:17;;;;;;;;;7.25;6.25;;;;;25.25;43.19;101764.94;5035394;28;8829;-67
2022/07/19 06:46:44;;;;;;;;;5.00;5.00;;;;;25.29;43.86;101762.47;5053258;28;8833;-67
2022/07/19 06:49:19;;;;;;;;;5.50;5.25;;;;;25.32;43.68;101756.38;5053448;28;8965;-67
2022/07/19 06:51:45;;;;;;;;;4.00;4.00;;;;;25.35;43.64;101753.91;5052490;28;8828;-67
2022/07/19 06:54:12;;;;;;;;;6.00;4.25;;;;;25.39;43.88;101754.19;5053439;28;8805;-67
2022/07/19 06:56:38;;;;;;;;;4.00;4.00;;;;;25.41;43.79;101757.53;5043448;28;8819;-67
2022/07/19 06:59:05;;;;;;;;;5.25;4.25;;;;;25.45;43.47;101750.38;5040345;28;8826;-67
2022/07/19 07:01:31;;;;;;;;;5.75;4.00;;;;;25.46;42.66;101748.44;5050802;28;9543;-67
2022/07/19 07:03:58;;;;;;;;;5.75;5.50;;;;;25.52;41.76;101744.59;5041209;28;8828;-67
2022/07/19 07:06:24;;;;;;;;;6.00;4.50;;;;;25.57;41.42;101747.38;5033164;28;8827;-67
2022/07/19 07:08:51;;;;;;;;;4.00;3.00;;;;;25.65;40.97;101746.84;5040773;28;8815;-67
2022/07/19 07:11:17;;;;;;;;;4.00;4.00;;;;;25.72;40.67;101730.00;5040055;28;8966;-67
2022/07/19 07:13:44;;;;;;;;;7.00;6.75;;;;;25.80;40.54;101737.75;5033023;28;8884;-67
2022/07/19 07:16:10;;;;;;;;;5.00;5.00;;;;;25.83;40.22;101728.94;5042801;28;8906;-67
2022/07/19 07:18:37;;;;;;;;;7.75;5.50;;;;;25.91;40.36;101724.81;5046793;28;9604;-67
2022/07/19 07:21:04;;;;;;;;;4.50;3.50;;;;;25.93;40.71;101731.72;5042452;28;8963;-67
2022/07/19 07:23:30;;;;;;;;;6.00;6.00;;;;;25.99;40.76;101730.59;5046641;28;8915;-67
2022/07/19 07:25:57;;;;;;;;;7.50;7.00;;;;;26.09;39.87;101730.63;5051386;28;8855;-67
2022/07/19 07:28:23;;;;;;;;;8.50;7.00;;;;;26.15;40.35;101731.41;5040366;28;8809;-67
2022/07/19 07:30:52;;;;;;;;;8.50;4.25;;;;;26.18;40.67;101724.53;5042469;28;8914;-67
2022/07/19 07:33:18;;;;;;;;;5.00;4.00;;;;;26.23;41.00;101727.28;5041902;28;8803;-67
2022/07/19 07:35:45;;;;;;;;;5.00;5.00;;;;;26.27;41.27;101722.84;5036054;28;8821;-67
2022/07/19 07:38:11;;;;;;;;;6.75;6.75;;;;;26.30;41.04;101717.59;5051026;28;8850;-67
2022/07/19 07:40:38;;;;;;;;;7.75;7.25;;;;;26.35;40.98;101712.06;5042916;28;8925;-67
2022/07/19 07:43:05;;;;;;;;;5.25;5.25;;;;;26.45;40.80;101719.53;5042546;28;8816;-66
2022/07/19 07:45:32;;;;;;;;;4.00;4.00;;;;;26.49;40.69;101723.38;5036369;28;9621;-67
2022/07/19 07:47:59;;;;;;;;;6.00;6.00;;;;;26.55;40.49;101716.75;5049380;28;8824;-67
2022/07/19 07:50:25;;;;;;;;;8.00;8.00;;;;;26.63;40.44;101710.66;5051463;28;8939;-67
2022/07/19 07:52:52;;;;;;;;;5.50;5.50;;;;;26.72;40.77;101712.84;5043822;28;8919;-67
2022/07/19 07:55:18;;;;;;;;;7.50;7.50;;;;;26.78;40.32;101717.22;5036827;28;9564;-67
2022/07/19 07:57:55;;;;;;;;;6.00;6.00;;;;;26.83;40.68;101715.28;5048284;28;8857;-67
2022/07/19 08:00:22;;;;;;;;;5.75;5.75;;;;;26.94;40.32;101718.84;5037414;28;8822;-67
2022/07/19 08:02:49;;;;;;;;;5.75;5.75;;;;;27.03;40.56;101714.38;5039783;28;8811;-67
2022/07/19 08:05:21;;;;;;;;;7.75;5.75;;;;;27.07;40.79;101715.44;5044109;28;8833;-67
2022/07/19 08:07:48;;;;;;;;;9.25;9.25;;;;;27.13;39.75;101713.50;5046080;28;8861;-67
2022/07/19 08:10:19;;;;;;;;;8.50;7.25;;;;;27.19;39.64;101711.56;5042908;28;8814;-67
2022/07/19 08:12:45;;;;;;;;;7.00;6.75;;;;;27.23;39.79;101712.63;5047356;28;8813;-67
2022/07/19 08:15:12;;;;;;;;;6.00;6.00;;;;;27.28;38.79;101713.44;5050082;28;8836;-67
2022/07/19 08:17:38;;;;;;;;;6.25;6.25;;;;;27.36;38.32;101706.47;5030649;28;8989;-68
2022/07/19 08:20:05;;;;;;;;;5.00;5.00;;;;;27.46;38.16;101709.16;5045878;28;8880;-68
2022/07/19 08:22:32;;;;;;;;;6.25;6.25;;;;;27.54;37.94;101708.53;5045437;28;8815;-67
2022/07/19 08:24:58;;;;;;;;;7.25;7.25;;;;;27.58;38.25;101700.50;5047122;28;8812;-67
2022/07/19 08:27:25;;;;;;;;;6.00;5.25;;;;;27.60;38.96;101703.81;5044118;28;8931;-67
2022/07/19 08:29:51;;;;;;;;;10.50;9.00;;;;;27.59;39.08;101704.94;5039307;28;8815;-67
2022/07/19 08:32:18;;;;;;;;;7.75;7.75;;;;;27.64;38.66;101704.06;5030881;28;8892;-66
2022/07/19 08:34:45;;;;;;;;;8.25;8.25;;;;;27.76;38.37;101704.56;5032822;28;8813;-67
2022/07/19 08:37:11;;;;;;;;;7.75;7.50;;;;;27.89;38.72;101700.28;5043606;28;8821;-67
2022/07/19 08:39:38;;;;;;;;;8.50;8.50;;;;;27.96;38.19;101698.03;5046039;28;8797;-67
2022/07/19 08:42:04;;;;;;;;;7.25;7.25;;;;;28.06;37.83;101698.75;5047645;28;8800;-68
2022/07/19 08:44:34;;;;;;;;;8.75;8.75;;;;;28.19;36.34;101696.41;5047680;28;8927;-68
2022/07/19 08:47:01;;;;;;;;;8.75;8.75;;;;;28.28;36.68;101695.50;5041259;28;8850;-67
2022/07/19 08:49:28;;;;;;;;;9.75;8.00;;;;;28.29;37.39;101693.53;5025053;28;8844;-68
2022/07/19 08:51:55;;;;;;;;;7.75;7.75;;;;;28.35;37.00;101695.13;5033366;28;8943;-68
2022/07/19 08:54:21;;;;;;;;;9.00;6.75;;;;;28.36;36.72;101691.28;5041201;28;8831;-67
2022/07/19 08:59:32;;;;;;;;;11.75;9.25;;;;;28.49;37.09;101690.59;5036390;28;8845;-68
2022/07/19 09:01:59;;;;;;;;;8.25;8.25;;;;;28.51;37.00;101691.09;5043687;28;8904;-68
2022/07/19 09:04:30;;;;;;;;;8.75;8.25;;;;;28.50;37.20;101691.41;5044745;28;8835;-68
2022/07/19 09:06:58;;;;;;;;;9.25;9.25;;;;;28.51;37.38;101685.56;5046068;28;8836;-68
2022/07/19 09:09:34;;;;;;;;;9.75;9.75;;;;;28.64;36.33;101686.78;5029167;28;9527;-68
2022/07/19 09:12:02;;;;;;;;;7.00;7.00;;;;;28.74;36.40;101683.91;5044109;28;8809;-67
2022/07/19 09:14:34;;;;;;;;;8.00;7.75;;;;;28.80;36.61;101684.66;5045708;28;8874;-68
2022/07/19 09:17:03;;;;;;;;;10.25;9.50;;;;;28.99;35.69;101682.78;5041479;28;8945;-68
2022/07/19 09:19:36;;;;;;;;;9.00;8.50;;;;;29.04;35.87;101684.66;5022010;28;8826;-68
2022/07/19 09:22:12;;;;;;;;;9.25;9.25;;;;;29.06;35.60;101679.63;5044492;28;8832;-68
2022/07/19 09:24:43;;;;;;;;;6.50;6.50;;;;;29.11;36.37;101684.28;5046230;28;8824;-68
2022/07/19 09:27:19;;;;;;;;;9.75;9.75;;;;;29.24;35.52;101684.34;5042582;28;8827;-68
2022/07/19 09:29:48;;;;;;;;;8.00;8.00;;;;;29.34;35.29;101680.63;5042989;28;8829;-68
2022/07/19 09:32:17;;;;;;;;;11.00;9.75;;;;;29.34;35.59;101680.63;5038148;28;8833;-68
2022/07/19 09:34:54;;;;;;;;;10.75;10.75;;;;;29.36;35.32;101683.09;5029522;28;8819;-68
2022/07/19 09:37:25;;;;;;;;;11.00;8.00;;;;;29.40;35.06;101673.03;5029221;28;8844;-68
2022/07/19 09:39:54;;;;;;;;;8.50;8.50;;;;;29.44;35.06;101671.31;5035472;28;8964;-68
2022/07/19 09:42:23;;;;;;;;;10.25;8.75;;;;;29.46;35.60;101664.34;5037503;28;9533;-67
2022/07/19 09:45:01;;;;;;;;;10.00;9.25;;;;;29.63;34.71;101668.53;5030915;28;8795;-68
2022/07/19 09:47:40;;;;;;;;;10.25;9.00;;;;;29.73;34.87;101676.69;5039040;28;9698;-68
2022/07/19 09:50:14;;;;;;;;;9.00;9.00;;;;;29.79;34.25;101669.94;5040962;28;8819;-68
2022/07/19 09:52:42;;;;;;;;;7.50;7.50;;;;;29.84;34.43;101671.78;5035565;28;8820;-68
2022/07/19 09:55:15;;;;;;;;;7.50;7.25;;;;;29.86;34.34;101667.59;5035521;28;8807;-67
2022/07/19 09:57:47;;;;;;;;;9.00;9.00;;;;;29.89;34.59;101666.13;5038740;28;8925;-68
2022/07/19 10:00:19;;;;;;;;;8.00;7.50;;;;;29.98;35.07;101665.16;5043434;28;8848;-67
2022/07/19 10:02:57;;;;;;;;;8.50;8.00;;;;;30.04;35.52;101663.09;5034426;28;8925;-67
2022/07/19 10:05:29;;;;;;;;;7.50;7.50;;;;;30.04;35.59;101652.00;5035161;28;8819;-68
2022/07/19 10:07:56;;;;;;;;;10.50;8.25;;;;;30.13;35.08;101654.88;5045361;28;8896;-67
2022/07/19 10:10:29;;;;;;;;;7.50;7.50;;;;;30.27;35.67;101645.47;5039075;28;8829;-69
2022/07/19 10:12:57;;;;;;;;;9.25;9.25;;;;;30.35;34.99;101645.88;5036552;28;8816;-69
2022/07/19 10:15:26;;;;;;;;;6.75;6.75;;;;;30.40;34.94;101643.00;5039858;28;8803;-67
2022/07/19 10:18:09;;;;;;;;;7.75;7.75;;;;;30.47;35.26;101643.41;5030436;28;8861;-67
2022/07/19 10:20:37;;;;;;;;;9.00;9.00;;;;;30.52;33.47;101641.34;5020642;28;8896;-67
2022/07/19 10:23:04;;;;;;;;;8.00;8.00;;;;;30.64;33.75;101642.78;5035068;28;8824;-67
2022/07/19 10:25:43;;;;;;;;;6.75;6.00;;;;;30.67;34.48;101645.75;5032939;28;8907;-67
2022/07/19 10:28:31;;;;;;;;;6.00;6.00;;;;;30.74;32.78;101637.84;5034337;28;8807;-67
2022/07/19 10:31:26;;;;;;;;;6.00;6.00;;;;;30.77;32.20;101640.00;5038607;28;8813;-68
2022/07/19 10:34:21;;;;;;;;;7.00;7.00;;;;;30.82;31.63;101633.50;5043553;28;8927;-68
2022/07/19 10:36:49;;;;;;;;;6.50;5.75;;;;;30.91;30.98;101637.22;5035524;28;8900;-67
2022/07/19 10:39:34;;;;;;;;;7.00;7.00;;;;;30.95;29.98;101627.09;5038792;28;8819;-66
2022/07/19 10:42:09;;;;;;;;;5.75;5.75;;;;;31.06;28.67;101632.41;5035255;28;8807;-66
2022/07/19 10:44:55;;;;;;;;;6.00;5.00;;;;;31.11;29.07;101621.97;5037712;28;8824;-67
2022/07/19 10:47:37;;;;;;;;;5.50;5.50;;;;;31.12;29.51;101625.63;5041318;28;8848;-67
2022/07/19 10:50:08;;;;;;;;;7.00;7.00;;;;;31.23;28.35;101633.38;5038712;28;8811;-67
2022/07/19 10:52:38;;;;;;;;;7.00;6.50;;;;;31.22;27.79;101617.81;5039238;28;8823;-67
2022/07/19 10:55:24;;;;;;;;;7.00;6.75;;;;;31.30;27.84;101627.41;5039420;28;8912;-67
2022/07/19 10:58:06;;;;;;;;;6.75;6.75;;;;;31.34;27.47;101622.03;5039138;28;8831;-67
2022/07/19 11:00:44;;;;;;;;;6.00;6.00;;;;;31.43;27.45;101615.38;5047849;28;8821;-67
2022/07/19 11:03:20;;;;;;;;;3.75;3.75;;;;;31.51;27.86;101620.19;5045609;28;8809;-66
2022/07/19 11:06:13;;;;;;;;;5.50;5.50;;;;;31.55;28.60;101617.59;5048437;28;8939;-66
2022/07/19 11:08:42;;;;;;;;;6.00;5.75;;;;;31.55;28.52;101622.34;5037796;28;8912;-66
2022/07/19 11:11:18;;;;;;;;;5.25;5.25;;;;;31.54;27.67;101612.38;5044947;28;8969;-66
2022/07/19 11:13:47;;;;;;;;;5.00;5.00;;;;;31.61;27.54;101613.56;5040967;28;8814;-66
2022/07/19 11:16:14;;;;;;;;;5.25;5.25;;;;;31.66;27.84;101595.91;5042869;28;8942;-66
2022/07/19 11:18:43;;;;;;;;;4.75;4.75;;;;;31.74;27.86;101604.28;5040568;28;8823;-67
2022/07/19 11:21:14;;;;;;;;;6.25;6.25;;;;;31.82;28.22;101594.34;5053011;28;8821;-66
2022/07/19 11:23:42;;;;;;;;;4.50;4.50;;;;;31.82;27.24;101590.75;5050558;28;9524;-66
2022/07/19 11:26:14;;;;;;;;;4.25;4.25;;;;;31.88;28.07;101592.25;5034554;28;8842;-66
2022/07/19 11:28:42;;;;;;;;;4.75;4.75;;;;;31.96;26.44;101592.31;5037390;28;8809;-67
2022/07/19 11:31:18;;;;;;;;;5.00;5.00;;;;;32.09;25.72;101578.63;5042170;28;8894;-67
2022/07/19 11:33:46;;;;;;;;;4.75;4.00;;;;;32.14;26.38;101579.28;5038577;28;8898;-68
2022/07/19 11:36:15;;;;;;;;;4.00;4.00;;;;;32.23;26.95;101582.91;5050674;28;8828;-68
2022/07/19 11:38:46;;;;;;;;;6.00;6.00;;;;;32.31;26.73;101581.28;5039605;28;8818;-67
2022/07/19 11:41:18;;;;;;;;;5.00;5.00;;;;;32.33;26.11;101579.03;5044996;28;8799;-67